createdAt,value
2018-07-23T00:01:01.067Z,100.00
2018-07-23T00:03:30.912Z,100.00
2018-07-23T00:06:01.174Z,100.00
2018-07-23T00:08:31.111Z,100.00
2018-07-23T00:11:01.395Z,100.00
2018-07-23T00:13:30.939Z,100.00
2018-07-23T00:16:01.258Z,100.00
2018-07-23T00:18:31.232Z,100.00
2018-07-23T00:21:01.101Z,100.00
2018-07-23T00:23:31.052Z,100.00
2018-07-23T00:26:01.309Z,100.00
2018-07-23T00:28:31.275Z,100.00
2018-07-23T00:31:01.177Z,100.00
2018-07-23T00:33:31.307Z,100.00
2018-07-23T00:36:01.205Z,100.00
2018-07-23T00:38:31.357Z,100.00
2018-07-23T00:41:01.636Z,100.00
2018-07-23T00:43:31.325Z,100.00
2018-07-23T00:46:01.277Z,100.00
2018-07-23T00:48:31.445Z,100.00
2018-07-23T00:51:01.401Z,100.00
2018-07-23T00:53:31.521Z,100.00
2018-07-23T00:56:01.771Z,100.00
2018-07-23T00:58:31.773Z,100.00
2018-07-23T01:01:01.771Z,100.00
2018-07-23T01:03:31.582Z,100.00
2018-07-23T01:06:02.083Z,100.00
2018-07-23T01:08:31.595Z,100.00
2018-07-23T01:11:01.469Z,100.00
2018-07-23T01:13:31.708Z,100.00
2018-07-23T01:16:01.746Z,100.00
2018-07-23T01:18:31.666Z,100.00
2018-07-23T01:21:02.053Z,100.00
2018-07-23T01:23:31.751Z,100.00
2018-07-23T01:26:02.049Z,100.00
2018-07-23T01:28:32.109Z,100.00
2018-07-23T01:31:01.990Z,100.00
2018-07-23T01:33:31.917Z,100.00
2018-07-23T01:36:01.907Z,100.00
2018-07-23T01:38:31.792Z,100.00
2018-07-23T01:41:02.073Z,100.00
2018-07-23T01:43:32.367Z,100.00
2018-07-23T01:46:02.337Z,100.00
2018-07-23T01:48:32.225Z,100.00
2018-07-23T01:51:02.091Z,100.00
2018-07-23T01:53:32.102Z,100.00
2018-07-23T01:56:01.909Z,100.00
2018-07-23T01:58:30.949Z,100.00
2018-07-23T02:01:03.186Z,100.00
2018-07-23T02:03:32.235Z,100.00
2018-07-23T02:06:02.494Z,100.00
2018-07-23T02:08:32.230Z,100.00
2018-07-23T02:11:02.141Z,100.00
2018-07-23T02:13:32.509Z,100.00
2018-07-23T02:16:02.520Z,100.00
2018-07-23T02:18:32.669Z,100.00
2018-07-23T02:21:02.242Z,100.00
2018-07-23T02:23:32.711Z,100.00
2018-07-23T02:26:02.626Z,100.00
2018-07-23T02:28:32.453Z,100.00
2018-07-23T02:31:02.466Z,100.00
2018-07-23T02:33:32.700Z,100.00
2018-07-23T02:36:02.712Z,100.00
2018-07-23T02:38:32.438Z,100.00
2018-07-23T02:41:02.960Z,100.00
2018-07-23T02:43:32.751Z,100.00
2018-07-23T02:46:02.418Z,100.00
2018-07-23T02:48:32.945Z,100.00
2018-07-23T02:51:03.005Z,100.00
2018-07-23T02:53:32.625Z,100.00
2018-07-23T02:56:02.506Z,100.00
2018-07-23T02:58:32.739Z,100.00
2018-07-23T03:01:02.586Z,100.00
2018-07-23T03:03:32.899Z,100.00
2018-07-23T03:06:02.864Z,100.00
2018-07-23T03:08:32.696Z,100.00
2018-07-23T03:11:02.854Z,100.00
2018-07-23T03:13:32.736Z,100.00
2018-07-23T03:16:02.810Z,100.00
2018-07-23T03:18:32.910Z,100.00
2018-07-23T03:21:03.225Z,100.00
2018-07-23T03:23:33.153Z,100.00
2018-07-23T03:26:03.051Z,100.00
2018-07-23T03:28:33.305Z,100.00
2018-07-23T03:31:02.950Z,100.00
2018-07-23T03:33:33.253Z,100.00
2018-07-23T03:36:03.159Z,100.00
2018-07-23T03:38:33.479Z,100.00
2018-07-23T03:41:03.220Z,100.00
2018-07-23T03:43:33.707Z,100.00
2018-07-23T03:46:03.250Z,100.00
2018-07-23T03:48:33.458Z,100.00
2018-07-23T03:51:03.242Z,100.00
2018-07-23T04:12:53.439Z,100.00
2018-07-23T04:15:22.517Z,100.00
2018-07-23T04:18:01.271Z,100.00
2018-07-23T04:20:31.158Z,100.00
2018-07-23T04:23:00.414Z,100.00
2018-07-23T04:25:29.726Z,100.00
2018-07-23T04:27:59.040Z,100.00
2018-07-23T04:30:28.786Z,100.00
2018-07-23T04:32:58.339Z,100.00
2018-07-23T04:35:27.521Z,100.00
2018-07-23T04:37:56.634Z,100.00
2018-07-23T04:40:25.741Z,100.00
2018-07-23T04:42:55.219Z,100.00
2018-07-23T04:45:24.325Z,100.00
2018-07-23T04:47:53.829Z,100.00
2018-07-23T04:50:22.967Z,100.00
2018-07-23T04:52:52.374Z,100.00
2018-07-23T04:55:21.452Z,100.00
2018-07-23T04:57:50.633Z,100.00
2018-07-23T05:00:19.743Z,100.00
2018-07-23T05:02:48.851Z,100.00
2018-07-23T05:05:18.382Z,100.00
2018-07-23T05:07:47.454Z,100.00
2018-07-23T05:10:16.561Z,100.00
2018-07-23T05:12:45.623Z,100.00
2018-07-23T05:15:14.726Z,100.00
2018-07-23T05:17:44.233Z,100.00
2018-07-23T05:20:13.664Z,100.00
2018-07-23T05:22:42.829Z,100.00
2018-07-23T05:25:12.269Z,100.00
2018-07-23T05:27:41.702Z,100.00
2018-07-23T05:30:10.843Z,100.00
2018-07-23T05:32:40.023Z,100.00
2018-07-23T05:35:09.132Z,100.00
2018-07-23T05:37:38.610Z,100.00
2018-07-23T05:40:08.149Z,100.00
2018-07-23T05:42:37.299Z,100.00
2018-07-23T05:45:06.986Z,100.00
2018-07-23T05:47:36.100Z,100.00
2018-07-23T05:50:06.098Z,100.00
2018-07-23T05:52:35.551Z,100.00
2018-07-23T05:55:05.045Z,99.81
2018-07-23T05:57:34.732Z,100.00
2018-07-23T06:00:05.488Z,100.00
2018-07-23T06:02:34.596Z,99.88
2018-07-23T06:05:04.884Z,99.43
2018-07-23T06:07:34.766Z,99.09
2018-07-23T06:10:05.121Z,99.22
2018-07-23T06:12:35.059Z,98.93
2018-07-23T06:15:05.356Z,98.39
2018-07-23T06:17:34.845Z,98.51
2018-07-23T06:20:06.314Z,98.98
2018-07-23T06:22:35.486Z,98.00
2018-07-23T06:25:05.455Z,98.30
2018-07-23T06:27:34.823Z,97.79
2018-07-23T06:30:07.330Z,98.03
2018-07-23T06:32:37.007Z,97.47
2018-07-23T06:35:06.522Z,97.04
2018-07-23T06:37:36.243Z,96.86
2018-07-23T06:40:07.103Z,96.65
2018-07-23T06:42:36.487Z,95.65
2018-07-23T06:45:05.624Z,96.13
2018-07-23T06:47:35.055Z,95.44
2018-07-23T06:50:05.326Z,95.61
2018-07-23T06:52:35.199Z,94.72
2018-07-23T06:55:05.327Z,94.56
2018-07-23T06:57:35.600Z,93.75
2018-07-23T07:00:06.106Z,92.19
2018-07-23T07:02:35.329Z,93.25
2018-07-23T07:05:05.859Z,92.31
2018-07-23T07:07:35.647Z,91.29
2018-07-23T07:22:59.965Z,91.54
2018-07-23T07:25:29.051Z,89.95
2018-07-23T07:27:58.173Z,90.65
2018-07-23T07:30:27.257Z,90.33
2018-07-23T07:32:56.527Z,90.20
2018-07-23T07:35:26.008Z,89.31
2018-07-23T07:37:55.380Z,90.66
2018-07-23T07:40:25.427Z,89.89
2018-07-23T07:42:54.944Z,89.28
2018-07-23T07:45:23.974Z,89.83
2018-07-23T07:47:53.153Z,89.39
2018-07-23T07:50:22.202Z,89.66
2018-07-23T07:52:51.335Z,90.36
2018-07-23T07:55:20.749Z,89.99
2018-07-23T07:57:50.272Z,89.95
2018-07-23T08:00:19.356Z,90.90
2018-07-23T08:02:48.944Z,90.46
2018-07-23T08:05:18.080Z,89.35
2018-07-23T08:07:47.359Z,86.83
2018-07-23T08:10:16.458Z,88.00
2018-07-23T08:12:45.564Z,87.09
2018-07-23T08:15:14.666Z,82.22
2018-07-23T08:17:43.800Z,84.41
2018-07-23T08:20:13.040Z,82.52
2018-07-23T08:22:42.151Z,82.99
2018-07-23T08:25:11.271Z,83.11
2018-07-23T08:27:40.409Z,83.16
2018-07-23T08:30:09.563Z,80.52
2018-07-23T08:32:38.895Z,81.53
2018-07-23T08:35:08.145Z,79.68
2018-07-23T08:37:37.548Z,78.51
2018-07-23T08:40:07.101Z,78.82
2018-07-23T08:42:36.505Z,77.55
2018-07-23T08:45:06.162Z,75.22
2018-07-23T08:47:36.379Z,76.97
2018-07-23T08:50:06.448Z,78.89
2018-07-23T08:52:36.048Z,79.37
2018-07-23T08:55:06.184Z,80.15
2018-07-23T08:57:36.462Z,77.17
2018-07-23T09:00:06.518Z,76.28
2018-07-23T09:02:36.660Z,77.83
2018-07-23T09:05:06.318Z,77.42
2018-07-23T09:07:36.216Z,74.87
2018-07-23T09:10:06.475Z,75.50
2018-07-23T09:12:36.348Z,75.92
2018-07-23T09:15:06.521Z,75.10
2018-07-23T09:17:36.627Z,74.23
2018-07-23T09:20:06.525Z,72.81
2018-07-23T09:22:37.138Z,73.88
2018-07-23T09:25:06.885Z,73.19
2018-07-23T09:27:36.697Z,73.63
2018-07-23T09:30:09.113Z,73.92
2018-07-23T09:32:38.168Z,72.66
2018-07-23T09:35:07.621Z,75.17
2018-07-23T09:37:37.043Z,73.53
2018-07-23T09:40:06.929Z,74.38
2018-07-23T09:42:36.953Z,73.60
2018-07-23T09:45:06.595Z,73.86
2018-07-23T09:47:36.611Z,74.00
2018-07-23T09:50:07.066Z,74.05
2018-07-23T09:52:36.658Z,74.09
2018-07-23T09:55:06.587Z,73.86
2018-07-23T09:57:36.856Z,72.01
2018-07-23T10:00:06.886Z,70.46
2018-07-23T10:02:37.023Z,72.83
2018-07-23T10:05:07.070Z,69.69
2018-07-23T10:07:36.969Z,71.25
2018-07-23T10:10:07.303Z,68.02
2018-07-23T10:12:36.801Z,71.91
2018-07-23T10:15:07.142Z,69.24
2018-07-23T10:17:37.032Z,68.71
2018-07-23T10:20:07.423Z,67.29
2018-07-23T10:22:37.539Z,65.91
2018-07-23T10:25:06.858Z,66.66
2018-07-23T10:27:37.019Z,67.99
2018-07-23T10:30:07.368Z,68.53
2018-07-23T10:32:37.259Z,69.00
2018-07-23T10:35:07.302Z,68.70
2018-07-23T10:37:37.030Z,66.12
2018-07-23T10:40:07.456Z,69.37
2018-07-23T10:42:37.095Z,65.42
2018-07-23T10:45:07.164Z,66.88
2018-07-23T10:47:37.076Z,66.49
2018-07-23T10:50:07.216Z,67.77
2018-07-23T10:52:37.564Z,67.75
2018-07-23T10:55:07.679Z,63.51
2018-07-23T10:57:37.425Z,64.40
2018-07-23T11:00:07.463Z,64.34
2018-07-23T11:02:38.263Z,63.40
2018-07-23T11:05:08.273Z,66.48
2018-07-23T11:07:37.765Z,60.31
2018-07-23T11:10:08.574Z,60.37
2018-07-23T11:12:38.188Z,62.25
2018-07-23T11:15:08.801Z,63.19
2018-07-23T11:17:38.339Z,63.13
2018-07-23T11:20:09.752Z,62.75
2018-07-23T11:22:39.051Z,65.34
2018-07-23T11:25:38.504Z,64.38
2018-07-23T11:27:37.867Z,64.41
2018-07-23T11:30:07.607Z,63.24
2018-07-23T11:32:37.979Z,64.74
2018-07-23T11:35:08.139Z,65.29
2018-07-23T11:37:38.050Z,63.21
2018-07-23T11:40:07.921Z,64.13
2018-07-23T11:42:37.881Z,66.46
2018-07-23T11:45:07.965Z,60.59
2018-07-23T11:47:37.736Z,62.67
2018-07-23T11:50:08.033Z,62.69
2018-07-23T11:52:38.594Z,60.96
2018-07-23T11:55:08.293Z,60.34
2018-07-23T11:57:37.812Z,60.68
2018-07-23T12:00:07.803Z,60.34
2018-07-23T12:02:37.894Z,56.88
2018-07-23T12:05:08.003Z,54.74
2018-07-23T12:07:37.891Z,60.10
2018-07-23T12:10:07.897Z,53.94
2018-07-23T12:12:37.936Z,58.78
2018-07-23T12:15:08.118Z,59.16
2018-07-23T12:17:39.652Z,60.83
2018-07-23T12:20:08.714Z,58.20
2018-07-23T12:22:37.992Z,58.62
2018-07-23T12:25:08.011Z,58.34
2018-07-23T12:27:38.056Z,57.77
2018-07-23T12:30:08.272Z,58.27
2018-07-23T12:32:38.094Z,60.08
2018-07-23T12:35:07.169Z,61.67
2018-07-23T12:37:36.262Z,60.05
2018-07-23T12:40:05.461Z,60.74
2018-07-23T12:42:34.490Z,60.89
2018-07-23T12:45:03.678Z,61.34
2018-07-23T12:47:35.568Z,62.42
2018-07-23T12:50:04.781Z,60.98
2018-07-23T12:52:33.934Z,62.57
2018-07-23T12:55:02.984Z,61.94
2018-07-23T12:57:32.090Z,62.97
2018-07-23T13:00:01.217Z,62.38
2018-07-23T13:02:30.257Z,63.61
2018-07-23T13:04:59.383Z,61.21
2018-07-23T13:07:28.486Z,61.88
2018-07-23T13:09:57.609Z,61.31
2018-07-23T13:12:26.888Z,63.68
2018-07-23T13:14:56.044Z,62.93
2018-07-23T13:17:25.341Z,62.16
2018-07-23T13:19:54.700Z,61.77
2018-07-23T13:22:23.874Z,62.22
2018-07-23T13:24:53.212Z,62.54
2018-07-23T13:27:22.479Z,61.81
2018-07-23T13:29:52.015Z,63.63
2018-07-23T13:32:21.498Z,63.93
2018-07-23T13:34:50.618Z,63.89
2018-07-23T13:37:20.185Z,64.30
2018-07-23T13:39:49.288Z,65.64
2018-07-23T13:44:28.142Z,68.38
2018-07-23T13:46:57.670Z,69.62
2018-07-23T13:49:26.732Z,68.96
2018-07-23T13:51:55.836Z,67.38
2018-07-23T13:54:24.967Z,65.28
2018-07-23T13:56:54.066Z,66.22
2018-07-23T13:59:23.119Z,64.85
2018-07-23T14:01:52.279Z,64.36
2018-07-23T14:04:21.402Z,62.53
2018-07-23T14:06:50.518Z,63.07
2018-07-23T14:09:19.573Z,63.75
2018-07-23T14:11:48.661Z,61.21
2018-07-23T14:14:17.734Z,61.13
2018-07-23T14:16:46.818Z,57.67
2018-07-23T14:19:15.964Z,55.44
2018-07-23T14:21:45.080Z,54.77
2018-07-23T14:24:14.172Z,53.43
2018-07-23T14:26:43.280Z,51.98
2018-07-23T14:29:12.502Z,52.24
2018-07-23T14:31:41.572Z,54.16
2018-07-23T14:34:10.686Z,54.01
2018-07-23T14:36:40.115Z,55.44
2018-07-23T14:39:12.389Z,56.45
2018-07-23T14:41:41.553Z,53.45
2018-07-23T14:44:10.654Z,55.82
2018-07-23T14:46:40.473Z,56.34
2018-07-23T14:49:10.062Z,55.09
2018-07-23T14:51:40.012Z,55.60
2018-07-23T14:54:09.115Z,55.97
2018-07-23T14:56:38.196Z,56.95
2018-07-23T14:59:07.254Z,56.41
2018-07-23T15:01:36.490Z,57.48
2018-07-23T15:04:05.610Z,57.56
2018-07-23T15:06:34.749Z,52.17
2018-07-23T15:09:04.009Z,52.36
2018-07-23T15:11:33.083Z,52.76
2018-07-23T15:14:02.212Z,49.17
2018-07-23T15:16:31.281Z,47.22
2018-07-23T15:19:00.434Z,47.83
2018-07-23T15:21:29.630Z,44.81
2018-07-23T15:23:58.664Z,48.08
2018-07-23T15:26:27.821Z,46.06
2018-07-23T15:28:56.956Z,43.28
2018-07-23T15:31:26.036Z,44.83
2018-07-23T15:33:55.104Z,44.89
2018-07-23T15:36:24.215Z,43.39
2018-07-23T15:38:53.324Z,46.29
2018-07-23T15:41:22.444Z,45.82
2018-07-23T15:43:51.596Z,46.50
2018-07-23T15:46:20.709Z,45.25
2018-07-23T15:48:51.449Z,47.11
2018-07-23T15:51:20.573Z,48.99
2018-07-23T15:53:49.716Z,50.32
2018-07-23T15:56:18.767Z,49.58
2018-07-23T15:58:47.861Z,51.72
2018-07-23T16:01:17.015Z,52.11
2018-07-23T16:03:46.137Z,54.66
2018-07-23T16:06:15.289Z,58.72
2018-07-23T16:08:44.347Z,62.00
2018-07-23T16:11:13.430Z,61.67
2018-07-23T16:13:42.629Z,63.37
2018-07-23T16:16:11.699Z,65.88
2018-07-23T16:18:41.402Z,67.02
2018-07-23T16:21:10.478Z,66.49
2018-07-23T16:23:39.573Z,67.38
2018-07-23T16:26:08.794Z,64.99
2018-07-23T16:28:37.826Z,64.86
2018-07-23T16:31:06.929Z,65.04
2018-07-23T16:33:36.098Z,66.06
2018-07-23T16:36:05.266Z,67.57
2018-07-23T16:38:34.341Z,69.43
2018-07-23T16:41:03.482Z,69.55
2018-07-23T16:43:32.575Z,71.48
2018-07-23T16:46:01.630Z,72.42
2018-07-23T16:48:30.786Z,71.41
2018-07-23T16:50:59.846Z,70.97
2018-07-23T16:53:28.917Z,71.21
2018-07-23T16:55:58.028Z,70.93
2018-07-23T16:58:27.512Z,69.57
2018-07-23T17:00:56.640Z,69.47
2018-07-23T17:03:26.197Z,71.06
2018-07-23T17:05:55.220Z,69.64
2018-07-23T17:08:24.300Z,71.24
2018-07-23T17:10:53.418Z,70.91
2018-07-23T17:13:22.488Z,70.57
2018-07-23T17:15:51.629Z,70.68
2018-07-23T17:18:20.759Z,70.58
2018-07-23T17:20:49.817Z,68.94
2018-07-23T17:23:18.910Z,70.46
2018-07-23T17:25:48.013Z,71.12
2018-07-23T17:28:17.131Z,70.97
2018-07-23T17:30:46.211Z,69.99
2018-07-23T17:33:15.297Z,70.21
2018-07-23T17:35:44.390Z,71.18
2018-07-23T17:38:13.472Z,71.79
2018-07-23T17:40:42.666Z,72.08
2018-07-23T17:43:12.559Z,72.40
2018-07-23T17:45:42.476Z,72.91
2018-07-23T17:48:12.538Z,71.89
2018-07-23T17:50:43.061Z,71.76
2018-07-23T17:53:12.606Z,71.94
2018-07-23T17:55:42.738Z,71.04
2018-07-23T17:58:12.683Z,72.11
2018-07-23T18:00:42.820Z,73.51
2018-07-23T18:03:12.788Z,73.30
2018-07-23T18:05:42.769Z,73.87
2018-07-23T18:08:12.916Z,74.40
2018-07-23T18:10:43.019Z,74.58
2018-07-23T18:13:12.845Z,75.13
2018-07-23T18:15:42.915Z,75.25
2018-07-23T18:18:13.308Z,73.16
2018-07-23T18:20:43.021Z,71.93
2018-07-23T18:23:13.005Z,73.37
2018-07-23T18:25:43.132Z,73.50
2018-07-23T18:28:13.087Z,71.30
2018-07-23T18:30:43.022Z,71.19
2018-07-23T18:33:13.014Z,71.50
2018-07-23T18:35:42.095Z,71.19
2018-07-23T18:38:11.260Z,71.66
2018-07-23T18:40:40.623Z,72.85
2018-07-23T18:43:09.749Z,72.31
2018-07-23T18:45:38.895Z,73.62
2018-07-23T18:49:28.395Z,73.47
2018-07-23T18:51:57.650Z,73.14
2018-07-23T18:54:28.012Z,73.49
2018-07-23T18:56:58.949Z,73.62
2018-07-23T18:59:28.009Z,73.90
2018-07-23T19:01:57.995Z,73.34
2018-07-23T19:04:27.152Z,74.56
2018-07-23T19:06:56.451Z,74.91
2018-07-23T19:09:26.487Z,75.51
2018-07-23T19:11:56.404Z,75.37
2018-07-23T19:14:25.599Z,75.75
2018-07-23T19:16:55.667Z,75.49
2018-07-23T19:19:24.804Z,77.21
2018-07-23T19:21:54.005Z,78.00
2018-07-23T19:24:23.188Z,78.51
2018-07-23T19:26:52.623Z,79.73
2018-07-23T19:29:21.845Z,79.51
2018-07-23T19:31:51.962Z,79.76
2018-07-23T19:34:21.443Z,80.89
2018-07-23T19:36:50.870Z,80.71
2018-07-23T19:39:21.088Z,81.42
2018-07-23T19:41:50.280Z,81.66
2018-07-23T19:44:19.419Z,81.78
2018-07-23T19:46:48.627Z,81.52
2018-07-23T19:49:17.829Z,81.81
2018-07-23T19:51:46.960Z,82.32
2018-07-23T19:54:16.136Z,82.54
2018-07-23T19:56:45.220Z,82.79
2018-07-23T19:59:14.496Z,83.95
2018-07-23T20:01:44.354Z,84.60
2018-07-23T20:04:14.456Z,85.10
2018-07-23T20:06:44.345Z,84.68
2018-07-23T20:09:14.662Z,84.67
2018-07-23T20:11:44.401Z,85.72
2018-07-23T20:14:14.426Z,85.71
2018-07-23T20:16:44.505Z,86.33
2018-07-23T20:19:14.622Z,86.75
2018-07-23T20:21:44.811Z,87.18
2018-07-23T20:24:14.446Z,86.92
2018-07-23T20:26:44.469Z,87.03
2018-07-23T20:29:14.918Z,87.75
2018-07-23T20:31:44.565Z,88.31
2018-07-23T20:34:14.770Z,87.63
2018-07-23T20:36:44.624Z,87.62
2018-07-23T20:39:14.680Z,87.80
2018-07-23T20:41:44.597Z,87.85
2018-07-23T20:44:14.799Z,88.78
2018-07-23T20:46:44.606Z,88.60
2018-07-23T20:49:14.767Z,88.19
2018-07-23T20:51:44.834Z,87.97
2018-07-23T20:54:14.788Z,88.19
2018-07-23T20:56:44.960Z,87.85
2018-07-23T20:59:14.838Z,88.55
2018-07-23T21:01:43.933Z,88.00
2018-07-23T21:04:13.576Z,88.26
2018-07-23T21:06:42.800Z,88.29
2018-07-23T21:09:12.044Z,89.54
2018-07-23T21:11:41.348Z,88.76
2018-07-23T21:14:10.584Z,89.12
2018-07-23T21:16:39.697Z,89.84
2018-07-23T21:19:08.799Z,89.98
2018-07-23T21:21:38.282Z,89.42
2018-07-23T21:24:07.442Z,89.47
2018-07-23T21:26:36.842Z,89.67
2018-07-23T21:29:06.011Z,89.50
2018-07-23T21:31:35.473Z,89.86
2018-07-23T21:34:05.060Z,90.32
2018-07-23T21:36:34.498Z,90.59
2018-07-23T21:39:03.930Z,90.81
2018-07-23T21:41:33.135Z,90.98
2018-07-23T21:44:02.648Z,90.65
2018-07-23T21:46:32.355Z,91.28
2018-07-23T21:49:01.578Z,91.37
2018-07-23T21:51:30.635Z,90.75
2018-07-23T21:53:59.801Z,90.84
2018-07-23T21:56:29.590Z,90.72
2018-07-23T21:58:59.055Z,90.94
2018-07-23T22:01:28.426Z,91.18
2018-07-23T22:03:57.860Z,91.07
2018-07-23T22:06:26.948Z,91.27
2018-07-23T22:08:56.748Z,90.92
2018-07-23T22:11:25.852Z,90.89
2018-07-23T22:13:54.948Z,90.82
2018-07-23T22:16:24.056Z,91.16
2018-07-23T22:18:53.125Z,91.79
2018-07-23T22:21:22.278Z,91.08
2018-07-23T22:23:51.465Z,91.22
2018-07-23T22:26:20.564Z,91.68
2018-07-23T22:28:49.645Z,91.98
2018-07-23T22:31:18.796Z,91.68
2018-07-23T22:33:48.186Z,92.16
2018-07-23T22:36:17.462Z,91.36
2018-07-23T22:38:47.061Z,91.58
2018-07-23T22:41:16.166Z,92.36
2018-07-23T22:43:46.201Z,92.66
2018-07-23T22:46:16.242Z,92.56
2018-07-23T22:48:46.592Z,93.35
2018-07-23T22:51:17.911Z,92.84
2018-07-23T22:53:47.427Z,93.41
2018-07-23T22:56:16.509Z,92.81
2018-07-23T22:58:46.206Z,92.86
2018-07-23T23:01:15.314Z,93.64
2018-07-23T23:03:44.394Z,93.25
2018-07-23T23:06:13.510Z,93.67
2018-07-23T23:08:42.570Z,93.33
2018-07-23T23:11:11.650Z,92.90
2018-07-23T23:13:40.764Z,93.19
2018-07-23T23:16:09.836Z,93.32
2018-07-23T23:18:39.037Z,93.27
2018-07-23T23:21:08.172Z,93.16
2018-07-23T23:23:37.262Z,93.25
2018-07-23T23:26:06.655Z,92.96
2018-07-23T23:28:35.748Z,93.54
2018-07-23T23:31:05.200Z,94.05
2018-07-23T23:33:34.249Z,93.57
2018-07-23T23:36:03.313Z,93.34
2018-07-23T23:38:32.540Z,92.96
2018-07-23T23:41:02.061Z,93.47
2018-07-23T23:43:31.122Z,93.21
2018-07-23T23:46:00.320Z,93.12
2018-07-23T23:48:29.776Z,92.77
2018-07-23T23:50:58.815Z,93.36
2018-07-23T23:53:27.886Z,93.56
2018-07-23T23:55:56.988Z,93.02
2018-07-23T23:58:26.174Z,93.34
